Redwood City, CA (94065)

01:07 PST le 28 janvier 2015 (GMT -0800)
Belmont - Island Park | Change Station
CLOSE
Current Station
Stations météorologiques personnelles
Location: Belmont, CA
Altitude: 5 ft
Stations météo à proximité

Alt. 5 ft 37.53 °N, 122.27 °W | Updated 17 seconds ago

Clear
Ciel dégagé
49.5 ° F
Paraît 50 ° F
N
0.0
Vent Variable Vent de SSO
Gusts 0.0 mph

Aujourd'hui
Haut(e) -- | Bas -- ° F
--% Risque de précip.
Hier
Haut(e) -- | Bas -- ° F
Precip. -- pouce
7:15 AM 5:28 PM
Lune gibbeuse croissante, 63% visible
Pression 30.26 pouce
Visibilité 10.0 Miles terrestres
Nuages Ciel dégagé
Refroidissement éolien 50 ° F
Point de rosée 45 ° F
Humidité 84%
Précipitations 0.00 pouce
Profondeur de la couche neigeuse Non disponible.
UV 0 sur 12
Pollen 6.80 sur 12
Qualité de l'air Non disponible.
Flu Activity Non disponible.
METAR KSQL 280850Z AUTO 00000KT 10SM CLR 10/08 A3026 RMK AO2

More Conditions Fewer Conditions

Pression 30.26 pouce
Visibilité 10.0 Miles terrestres
Nuages Ciel dégagé
Refroidissement éolien 50 ° F
Point de rosée 45 ° F
Humidité 84%
Précipitations 0.00 pouce
Profondeur de la couche neigeuse Non disponible.
UV 0 sur 12
Pollen 6.80 sur 12
Qualité de l'air Non disponible.
Flu Activity Non disponible.
METAR KSQL 280850Z AUTO 00000KT 10SM CLR 10/08 A3026 RMK AO2

More Conditions Fewer Conditions

10-Day Weather Forecast

Almanac

Astronomie

Jan. 28, 2015 Lever Coucher
Temps réel
Crépuscule civil
Crépuscule nautique
Crépuscule astronomique
Lune
Durée de lumière visible
Longueur du jour
Tomorrow will be .
, % of the Moon is Illuminated

Extrêmes aujourd'hui

State Highs State Lows

Community

WunderPhotos

Upload Photos

1,791,120 Photos téléchargées !

WunderBlogs® & News

Nearby

Qualité de l'air

  Qualité de l'air Indice de la qualité de l'air Polluant
Not available.

Épaisseur de neige

Station Depth Altitude

Activité sismique

Ville Distance Mag. Time & Date
Minimum magnitude displayed is 2.5.

Températures des eaux côtières

Lieu Température

Stations météo à proximité